createdAt,value
2018-08-13T00:01:37.563Z,2.37
2018-08-13T00:04:05.788Z,1.80
2018-08-13T00:06:33.994Z,1.73
2018-08-13T00:09:02.239Z,1.90
2018-08-13T00:11:36.762Z,1.80
2018-08-13T00:14:05.056Z,1.80
2018-08-13T00:16:33.279Z,1.97
2018-08-13T00:19:01.499Z,1.63
2018-08-13T00:21:29.687Z,1.90
2018-08-13T00:23:57.918Z,2.03
2018-08-13T00:26:26.140Z,1.70
2018-08-13T00:28:54.342Z,1.93
2018-08-13T00:31:22.590Z,2.40
2018-08-13T00:33:50.760Z,2.27
2018-08-13T00:36:18.936Z,1.83
2018-08-13T00:38:47.230Z,1.80
2018-08-13T00:41:15.500Z,2.20
2018-08-13T00:43:43.749Z,2.57
2018-08-13T00:46:11.950Z,2.10
2018-08-13T00:48:40.177Z,2.20
2018-08-13T00:51:08.395Z,2.10
2018-08-13T00:53:36.644Z,1.90
2018-08-13T00:56:04.887Z,2.13
2018-08-13T00:58:33.069Z,2.00
2018-08-13T01:01:01.270Z,1.90
2018-08-13T01:03:29.487Z,2.13
2018-08-13T01:05:57.716Z,2.30
2018-08-13T01:08:25.899Z,2.30
2018-08-13T01:10:54.127Z,2.40
2018-08-13T01:13:22.456Z,1.63
2018-08-13T01:15:50.736Z,2.07
2018-08-13T01:18:18.953Z,2.00
2018-08-13T01:20:47.175Z,2.00
2018-08-13T01:23:15.386Z,2.00
2018-08-13T01:25:43.615Z,2.03
2018-08-13T01:28:11.817Z,1.97
2018-08-13T01:30:40.142Z,2.17
2018-08-13T01:33:08.358Z,2.17
2018-08-13T01:35:36.555Z,1.80
2018-08-13T01:38:04.982Z,2.07
2018-08-13T01:40:33.214Z,2.40
2018-08-13T01:43:01.472Z,2.10
2018-08-13T01:45:29.796Z,1.93
2018-08-13T01:47:57.967Z,1.70
2018-08-13T01:50:26.231Z,2.07
2018-08-13T01:52:54.459Z,2.00
2018-08-13T01:55:22.746Z,2.00
2018-08-13T01:57:51.073Z,1.83
2018-08-13T02:00:19.258Z,1.70
2018-08-13T02:02:47.471Z,1.60
2018-08-13T02:05:15.866Z,1.80
2018-08-13T02:07:44.129Z,2.20
2018-08-13T02:10:13.010Z,1.97
2018-08-13T02:12:41.333Z,1.80
2018-08-13T02:15:09.594Z,2.50
2018-08-13T02:17:37.855Z,1.70
2018-08-13T02:20:07.165Z,2.30
2018-08-13T02:22:35.484Z,2.17
2018-08-13T02:25:04.389Z,2.27
2018-08-13T02:27:32.583Z,1.67
2018-08-13T02:30:00.827Z,2.10
2018-08-13T02:32:29.162Z,2.60
2018-08-13T02:34:57.533Z,2.00
2018-08-13T02:37:25.714Z,2.00
2018-08-13T02:39:53.914Z,2.00
2018-08-13T02:42:22.121Z,2.03
2018-08-13T02:44:50.422Z,2.40
2018-08-13T02:47:18.640Z,2.03
2018-08-13T02:49:46.855Z,1.70
2018-08-13T02:52:15.030Z,2.10
2018-08-13T02:54:43.247Z,2.30
2018-08-13T02:57:11.487Z,2.13
2018-08-13T02:59:39.747Z,2.37
2018-08-13T03:02:08.130Z,2.10
2018-08-13T03:04:36.525Z,2.40
2018-08-13T03:07:04.701Z,2.20
2018-08-13T03:09:39.401Z,1.70
2018-08-13T03:12:07.603Z,2.43
2018-08-13T03:14:35.844Z,2.03
2018-08-13T03:17:04.110Z,2.60
2018-08-13T03:19:32.375Z,2.97
2018-08-13T03:22:00.651Z,2.30
2018-08-13T03:24:28.887Z,1.77
2018-08-13T03:26:58.041Z,2.03
2018-08-13T03:29:26.315Z,2.10
2018-08-13T03:31:54.551Z,2.50
2018-08-13T03:34:23.003Z,2.00
2018-08-13T03:36:51.243Z,2.50
2018-08-13T03:39:19.493Z,2.40
2018-08-13T03:41:47.747Z,2.90
2018-08-13T03:44:16.008Z,2.77
2018-08-13T03:46:44.302Z,2.43
2018-08-13T03:49:12.531Z,3.10
2018-08-13T03:51:41.591Z,3.10
2018-08-13T03:54:10.668Z,3.50
2018-08-13T03:56:39.659Z,3.57
2018-08-13T03:59:08.676Z,2.57
2018-08-13T04:01:38.206Z,3.50
2018-08-13T04:04:07.414Z,2.97
2018-08-13T04:06:35.691Z,3.20
2018-08-13T04:09:06.413Z,3.03
2018-08-13T04:11:34.688Z,3.57
2018-08-13T04:14:03.812Z,3.23
2018-08-13T04:16:32.062Z,3.30
2018-08-13T04:19:00.290Z,3.50
2018-08-13T04:21:31.524Z,3.30
2018-08-13T04:23:59.868Z,3.53
2018-08-13T04:26:28.078Z,2.97
2018-08-13T04:28:56.285Z,3.10
2018-08-13T04:31:24.522Z,3.60
2018-08-13T04:33:52.873Z,2.97
2018-08-13T04:36:21.102Z,3.63
2018-08-13T04:38:49.338Z,3.20
2018-08-13T04:41:17.637Z,3.93
2018-08-13T04:43:45.855Z,2.97
2018-08-13T04:46:14.102Z,3.33
2018-08-13T04:48:42.371Z,3.20
2018-08-13T04:51:10.611Z,2.80
2018-08-13T04:53:38.838Z,3.57
2018-08-13T04:56:07.098Z,3.13
2018-08-13T04:58:35.362Z,3.17
2018-08-13T05:01:03.586Z,3.10
2018-08-13T05:03:32.054Z,3.17
2018-08-13T05:06:00.343Z,3.50
2018-08-13T05:08:28.620Z,3.53
2018-08-13T05:10:56.850Z,3.63
2018-08-13T05:13:25.098Z,4.13
2018-08-13T05:15:53.315Z,4.00
2018-08-13T05:18:21.582Z,3.80
2018-08-13T05:20:49.842Z,4.10
2018-08-13T05:23:18.087Z,4.10
2018-08-13T05:25:46.309Z,3.60
2018-08-13T05:28:14.608Z,4.13
2018-08-13T05:30:42.855Z,3.63
2018-08-13T05:33:11.191Z,4.07
2018-08-13T05:35:39.439Z,4.40
2018-08-13T05:38:07.712Z,3.97
2018-08-13T05:40:35.944Z,4.20
2018-08-13T05:43:04.207Z,3.57
2018-08-13T05:45:32.439Z,4.57
2018-08-13T05:48:00.675Z,4.43
2018-08-13T05:50:28.923Z,4.50
2018-08-13T05:52:57.175Z,5.30
2018-08-13T05:55:25.451Z,4.00
2018-08-13T05:57:53.774Z,5.20
2018-08-13T06:00:21.989Z,4.43
2018-08-13T06:02:50.340Z,4.40
2018-08-13T06:05:18.583Z,5.60
2018-08-13T06:07:46.818Z,5.37
2018-08-13T06:10:15.064Z,5.93
2018-08-13T06:12:43.418Z,5.23
2018-08-13T06:15:12.767Z,5.40
2018-08-13T06:17:41.058Z,6.07
2018-08-13T06:20:13.984Z,6.97
2018-08-13T06:22:43.437Z,6.57
2018-08-13T06:25:12.677Z,6.93
2018-08-13T06:27:40.954Z,6.03
2018-08-13T06:30:13.905Z,5.80
2018-08-13T06:32:42.486Z,6.10
2018-08-13T06:35:11.756Z,6.37
2018-08-13T06:37:40.462Z,6.90
2018-08-13T06:40:08.891Z,6.70
2018-08-13T06:42:37.363Z,6.63
2018-08-13T06:45:06.065Z,6.27
2018-08-13T06:47:34.310Z,6.70
2018-08-13T06:50:02.583Z,6.57
2018-08-13T06:52:30.795Z,7.70
2018-08-13T06:54:59.163Z,8.03
2018-08-13T06:57:27.415Z,7.10
2018-08-13T06:59:55.611Z,8.13
2018-08-13T07:02:23.859Z,8.03
2018-08-13T07:04:52.083Z,8.13
2018-08-13T07:07:20.306Z,7.33
2018-08-13T07:09:48.722Z,8.00
2018-08-13T07:12:16.966Z,7.50
2018-08-13T07:14:45.198Z,8.00
2018-08-13T07:17:13.458Z,7.43
2018-08-13T07:19:41.708Z,9.30
2018-08-13T07:22:10.020Z,7.23
2018-08-13T07:24:38.282Z,7.83
2018-08-13T07:27:06.535Z,8.83
2018-08-13T07:29:35.000Z,9.60
2018-08-13T07:32:03.279Z,9.87
2018-08-13T07:34:31.482Z,9.47
2018-08-13T07:36:59.737Z,9.00
2018-08-13T07:39:28.123Z,9.20
2018-08-13T07:41:56.274Z,10.60
2018-08-13T07:44:24.505Z,9.23
2018-08-13T07:46:52.742Z,11.30
2018-08-13T07:49:21.050Z,9.90
2018-08-13T07:51:49.314Z,10.20
2018-08-13T07:54:17.611Z,9.33
2018-08-13T07:56:45.981Z,9.20
2018-08-13T07:59:14.206Z,9.10
2018-08-13T08:01:42.464Z,9.03
2018-08-13T08:04:10.752Z,8.37
2018-08-13T08:06:39.019Z,8.90
2018-08-13T08:09:09.514Z,8.80
2018-08-13T08:11:37.692Z,9.07
2018-08-13T08:14:06.241Z,10.17
2018-08-13T08:16:34.567Z,8.53
2018-08-13T08:19:02.805Z,7.97
2018-08-13T08:21:31.917Z,9.37
2018-08-13T08:24:00.330Z,8.17
2018-08-13T08:26:28.625Z,8.10
2018-08-13T08:28:56.915Z,9.70
2018-08-13T08:31:25.111Z,7.03
2018-08-13T08:33:53.439Z,8.57
2018-08-13T08:36:21.842Z,8.73
2018-08-13T08:38:50.172Z,9.33
2018-08-13T08:41:18.447Z,10.10
2018-08-13T08:43:46.698Z,9.60
2018-08-13T08:46:14.906Z,9.33
2018-08-13T08:48:43.155Z,9.20
2018-08-13T08:51:11.360Z,9.00
2018-08-13T08:53:40.895Z,9.27
2018-08-13T08:56:09.059Z,9.60
2018-08-13T08:58:37.307Z,9.10
2018-08-13T09:01:05.518Z,8.97
2018-08-13T09:03:33.782Z,8.70
2018-08-13T09:06:02.051Z,8.33
2018-08-13T09:08:30.339Z,6.77
2018-08-13T09:10:58.691Z,6.20
2018-08-13T09:13:26.940Z,7.40
2018-08-13T09:15:55.126Z,8.40
2018-08-13T09:18:34.632Z,7.50
2018-08-13T09:21:14.078Z,7.70
2018-08-13T09:23:53.649Z,8.90
2018-08-13T09:26:33.259Z,9.67
2018-08-13T09:29:12.890Z,9.10
2018-08-13T09:32:21.436Z,8.80
2018-08-13T09:35:06.260Z,9.40
2018-08-13T09:37:34.557Z,10.23
2018-08-13T09:40:02.868Z,10.80
2018-08-13T09:42:31.183Z,9.43
2018-08-13T09:44:59.578Z,9.07
2018-08-13T09:47:27.844Z,8.60
2018-08-13T09:49:56.059Z,8.00
2018-08-13T09:52:24.308Z,9.43
2018-08-13T09:54:52.532Z,9.50
2018-08-13T09:57:20.756Z,8.50
2018-08-13T09:59:49.040Z,7.90
2018-08-13T10:02:17.583Z,9.00
2018-08-13T10:04:45.910Z,8.30
2018-08-13T10:07:14.167Z,8.70
2018-08-13T10:09:42.405Z,8.90
2018-08-13T10:12:10.674Z,9.33
2018-08-13T10:14:39.097Z,9.10
2018-08-13T10:17:07.464Z,8.70
2018-08-13T10:19:35.718Z,8.67
2018-08-13T10:22:03.987Z,9.20
2018-08-13T10:24:32.270Z,9.40
2018-08-13T10:27:00.494Z,8.93
2018-08-13T10:29:28.726Z,8.93
2018-08-13T10:31:57.089Z,8.53
2018-08-13T10:34:25.306Z,9.40
2018-08-13T10:36:53.632Z,8.00
2018-08-13T10:39:21.936Z,9.33
2018-08-13T10:41:50.227Z,9.70
2018-08-13T10:44:18.650Z,9.03
2018-08-13T10:46:46.873Z,7.70
2018-08-13T10:49:15.122Z,7.80
2018-08-13T10:51:43.411Z,7.80
2018-08-13T10:54:11.677Z,8.60
2018-08-13T10:56:39.866Z,9.70
2018-08-13T10:59:08.228Z,7.20
2018-08-13T11:01:36.592Z,8.00
2018-08-13T11:04:05.018Z,7.03
2018-08-13T11:06:33.275Z,7.50
2018-08-13T11:09:01.515Z,7.07
2018-08-13T11:11:29.812Z,7.90
2018-08-13T11:13:58.236Z,7.73
2018-08-13T11:16:26.506Z,7.50
2018-08-13T11:18:54.906Z,7.97
2018-08-13T11:21:23.278Z,6.47
2018-08-13T11:23:51.584Z,6.13
2018-08-13T11:26:19.875Z,6.33
2018-08-13T11:28:48.155Z,7.57
2018-08-13T11:31:16.500Z,8.70
2018-08-13T11:33:44.772Z,8.50
2018-08-13T11:36:13.002Z,8.30
2018-08-13T11:38:41.674Z,9.00
2018-08-13T11:41:09.887Z,8.87
2018-08-13T11:43:38.312Z,7.50
2018-08-13T11:46:06.534Z,9.70
2018-08-13T11:48:34.776Z,9.77
2018-08-13T11:51:03.019Z,9.40
2018-08-13T11:53:31.270Z,9.50
2018-08-13T11:55:59.500Z,9.87
2018-08-13T11:58:27.768Z,9.50
2018-08-13T12:00:56.035Z,9.33
2018-08-13T12:03:24.272Z,8.70
2018-08-13T12:05:52.515Z,8.97
2018-08-13T12:08:20.811Z,10.67
2018-08-13T12:10:49.022Z,8.43
2018-08-13T12:13:17.404Z,10.20
2018-08-13T12:15:45.663Z,9.60
2018-08-13T12:18:13.892Z,10.87
2018-08-13T12:20:42.131Z,6.90
2018-08-13T12:23:10.379Z,10.80
2018-08-13T12:25:38.642Z,6.67
2018-08-13T12:28:06.950Z,7.70
2018-08-13T12:30:35.223Z,7.33
2018-08-13T12:33:03.606Z,6.83
2018-08-13T12:35:31.839Z,5.63
2018-08-13T12:38:00.082Z,6.10
2018-08-13T12:40:28.478Z,7.73
2018-08-13T12:42:56.751Z,5.57
2018-08-13T12:45:24.972Z,6.30
2018-08-13T12:47:53.387Z,4.87
2018-08-13T12:50:21.790Z,8.30
2018-08-13T12:52:51.134Z,9.50
2018-08-13T12:55:19.424Z,6.83
2018-08-13T12:57:47.648Z,5.57
2018-08-13T13:00:17.031Z,4.30
2018-08-13T13:02:45.270Z,2.50
2018-08-13T13:05:14.581Z,2.30
2018-08-13T13:07:42.861Z,2.03
2018-08-13T13:10:12.952Z,1.90
2018-08-13T13:12:41.672Z,1.80
2018-08-13T13:15:11.462Z,1.87
2018-08-13T13:17:39.906Z,1.63
2018-08-13T13:20:10.154Z,2.10
2018-08-13T13:22:38.399Z,2.17
2018-08-13T13:25:06.818Z,3.00
2018-08-13T13:27:35.371Z,2.53
2018-08-13T13:30:04.607Z,3.00
2018-08-13T13:32:32.858Z,3.20
2018-08-13T13:35:01.238Z,4.53
2018-08-13T13:37:29.464Z,4.27
2018-08-13T13:39:57.704Z,4.30
2018-08-13T13:42:25.979Z,4.30
2018-08-13T13:44:54.247Z,5.57
2018-08-13T13:47:22.446Z,5.57
2018-08-13T13:49:50.699Z,5.13
2018-08-13T13:52:19.386Z,4.77
2018-08-13T13:54:47.616Z,5.30
2018-08-13T13:57:16.000Z,5.93
2018-08-13T13:59:44.178Z,6.30
2018-08-13T14:02:12.407Z,7.40
2018-08-13T14:04:40.803Z,6.63
2018-08-13T14:07:09.214Z,6.67
2018-08-13T14:09:37.431Z,6.03
2018-08-13T14:12:05.705Z,5.83
2018-08-13T14:14:34.039Z,7.03
2018-08-13T14:17:02.246Z,3.20
2018-08-13T14:19:30.495Z,3.83
2018-08-13T14:21:58.866Z,4.60
2018-08-13T14:24:27.104Z,4.00
2018-08-13T14:26:55.363Z,4.23
2018-08-13T14:29:23.632Z,4.10
2018-08-13T14:31:51.883Z,4.47
2018-08-13T14:34:20.556Z,5.37
2018-08-13T14:36:48.772Z,6.10
2018-08-13T14:39:16.999Z,6.00
2018-08-13T14:41:45.227Z,5.80
2018-08-13T14:44:13.458Z,6.13
2018-08-13T14:46:41.720Z,6.80
2018-08-13T14:49:09.950Z,6.73
2018-08-13T14:51:38.199Z,5.60
2018-08-13T14:54:06.586Z,5.90
2018-08-13T14:56:34.792Z,4.07
2018-08-13T14:59:03.079Z,3.90
2018-08-13T15:01:31.326Z,4.90
2018-08-13T15:03:59.627Z,3.50
2018-08-13T15:06:27.855Z,3.10
2018-08-13T15:08:56.086Z,2.90
2018-08-13T15:11:28.550Z,2.50
2018-08-13T15:13:56.906Z,3.00
2018-08-13T15:16:25.091Z,2.57
2018-08-13T15:18:53.394Z,3.20
2018-08-13T15:21:21.612Z,3.80
2018-08-13T15:23:49.963Z,4.77
2018-08-13T15:26:18.233Z,4.43
2018-08-13T15:28:46.499Z,4.50
2018-08-13T15:31:14.989Z,3.70
2018-08-13T15:33:43.207Z,4.10
2018-08-13T15:36:11.440Z,3.47
2018-08-13T15:38:39.674Z,3.90
2018-08-13T15:41:07.971Z,4.73
2018-08-13T15:43:36.243Z,3.97
2018-08-13T15:46:04.513Z,5.10
2018-08-13T15:48:32.820Z,4.40
2018-08-13T15:51:01.070Z,4.60
2018-08-13T15:53:29.547Z,3.70
2018-08-13T15:55:57.764Z,4.97
2018-08-13T15:58:25.994Z,5.00
2018-08-13T16:00:54.336Z,5.37
2018-08-13T16:03:22.546Z,5.03
2018-08-13T16:05:57.479Z,5.40
2018-08-13T16:08:25.700Z,5.97
2018-08-13T16:10:53.946Z,5.10
2018-08-13T16:13:22.190Z,5.70
2018-08-13T16:15:50.481Z,5.83
2018-08-13T16:18:18.719Z,5.80
2018-08-13T16:20:46.974Z,7.10
2018-08-13T16:23:15.451Z,7.00
2018-08-13T16:25:43.671Z,6.73
2018-08-13T16:28:11.911Z,7.07
2018-08-13T16:30:40.130Z,6.27
2018-08-13T16:33:08.418Z,6.20
2018-08-13T16:35:36.972Z,6.83
2018-08-13T16:38:05.513Z,6.57
2018-08-13T16:40:33.823Z,7.37
2018-08-13T16:43:02.098Z,8.10
2018-08-13T16:45:30.575Z,8.93
2018-08-13T16:47:58.794Z,7.83
2018-08-13T16:50:28.782Z,9.70
2018-08-13T16:52:57.449Z,8.77
2018-08-13T16:55:26.566Z,8.63
2018-08-13T16:57:54.785Z,8.50
2018-08-13T17:00:24.717Z,10.37
2018-08-13T17:02:53.033Z,9.17
2018-08-13T17:05:21.347Z,9.90
2018-08-13T17:07:49.698Z,8.67
2018-08-13T17:10:21.011Z,9.27
2018-08-13T17:12:49.614Z,11.03
2018-08-13T17:15:18.055Z,10.23
2018-08-13T17:17:47.870Z,10.33
2018-08-13T17:20:17.731Z,10.47
2018-08-13T17:22:45.954Z,10.83
2018-08-13T17:25:15.175Z,11.50
2018-08-13T17:27:43.732Z,10.87
2018-08-13T17:30:14.245Z,10.97
2018-08-13T17:32:42.646Z,13.10
2018-08-13T17:35:10.997Z,12.73
2018-08-13T17:37:39.822Z,10.97
2018-08-13T17:40:10.744Z,10.03
2018-08-13T17:42:39.276Z,8.50
2018-08-13T17:45:08.467Z,12.10
2018-08-13T17:47:36.994Z,11.27
2018-08-13T17:50:06.351Z,9.37
2018-08-13T17:52:34.622Z,8.13
2018-08-13T17:55:02.914Z,4.80
2018-08-13T17:57:31.174Z,5.33
2018-08-13T17:59:59.450Z,5.10
2018-08-13T18:02:27.889Z,5.43
2018-08-13T18:04:56.052Z,3.63
2018-08-13T18:07:24.435Z,3.03
2018-08-13T18:09:52.697Z,3.00
2018-08-13T18:12:21.011Z,4.10
2018-08-13T18:14:49.447Z,3.57
2018-08-13T18:17:17.694Z,3.20
2018-08-13T18:19:45.957Z,3.23
2018-08-13T18:22:14.152Z,3.33
2018-08-13T18:24:42.423Z,1.60
2018-08-13T18:27:10.691Z,2.33
2018-08-13T18:29:38.966Z,2.90
2018-08-13T18:32:07.787Z,2.47
2018-08-13T18:34:36.018Z,3.00
2018-08-13T18:37:04.335Z,4.60
2018-08-13T18:39:32.580Z,4.47
2018-08-13T18:42:00.815Z,4.10
2018-08-13T18:44:29.127Z,4.67
2018-08-13T18:46:57.403Z,4.50
2018-08-13T18:49:25.688Z,3.93
2018-08-13T18:51:53.889Z,3.90
2018-08-13T18:54:22.136Z,4.57
2018-08-13T18:56:50.430Z,3.60
2018-08-13T18:59:18.895Z,4.80
2018-08-13T19:01:48.183Z,4.70
2018-08-13T19:04:16.455Z,4.37
2018-08-13T19:06:44.710Z,3.67
2018-08-13T19:09:13.649Z,4.90
2018-08-13T19:11:43.352Z,5.00
2018-08-13T19:14:12.265Z,4.87
2018-08-13T19:16:41.235Z,3.60
2018-08-13T19:19:10.190Z,5.17
2018-08-13T19:21:39.315Z,5.57
2018-08-13T19:24:08.265Z,4.30
2018-08-13T19:26:37.158Z,4.97
2018-08-13T19:29:05.467Z,5.40
2018-08-13T19:31:33.770Z,4.90
2018-08-13T19:34:02.246Z,4.97
2018-08-13T19:36:30.803Z,4.90
2018-08-13T19:38:59.759Z,5.33
2018-08-13T19:41:28.681Z,5.50
2018-08-13T19:43:57.511Z,4.60
2018-08-13T19:46:26.344Z,5.70
2018-08-13T19:48:55.531Z,5.57
2018-08-13T19:51:24.572Z,5.27
2018-08-13T19:53:53.082Z,5.93
2018-08-13T19:56:21.873Z,5.73
2018-08-13T19:58:50.876Z,6.47
2018-08-13T20:01:20.001Z,6.43
2018-08-13T20:03:48.891Z,6.70
2018-08-13T20:06:17.142Z,7.33
2018-08-13T20:08:45.970Z,6.57
2018-08-13T20:11:14.812Z,6.97
2018-08-13T20:13:43.757Z,7.97
2018-08-13T20:16:13.114Z,7.40
2018-08-13T20:18:41.459Z,8.40
2018-08-13T20:21:10.304Z,8.43
2018-08-13T20:23:39.241Z,8.03
2018-08-13T20:26:08.058Z,9.37
2018-08-13T20:28:37.003Z,9.90
2018-08-13T20:31:05.774Z,10.13
2018-08-13T20:33:35.114Z,10.20
2018-08-13T20:36:03.399Z,11.30
2018-08-13T20:38:31.649Z,9.90
2018-08-13T20:40:59.934Z,10.70
2018-08-13T20:43:28.355Z,12.27
2018-08-13T20:45:56.595Z,13.00
2018-08-13T20:48:24.846Z,12.20
2018-08-13T20:50:53.111Z,11.00
2018-08-13T20:53:21.359Z,12.47
2018-08-13T20:55:49.667Z,12.17
2018-08-13T20:58:17.895Z,13.53
2018-08-13T21:00:46.179Z,12.47
2018-08-13T21:03:14.407Z,14.50
2018-08-13T21:05:42.899Z,14.37
2018-08-13T21:08:11.187Z,15.27
2018-08-13T21:10:39.422Z,15.47
2018-08-13T21:13:07.735Z,15.30
2018-08-13T21:15:35.930Z,13.90
2018-08-13T21:18:04.302Z,14.60
2018-08-13T21:20:32.539Z,14.83
2018-08-13T21:23:00.790Z,14.13
2018-08-13T21:25:29.407Z,15.53
2018-08-13T21:27:57.611Z,16.50
2018-08-13T21:30:25.927Z,14.27
2018-08-13T21:32:54.164Z,15.00
2018-08-13T21:35:23.919Z,14.97
2018-08-13T21:37:52.391Z,15.33
2018-08-13T21:40:20.666Z,15.67
2018-08-13T21:42:49.659Z,15.63
2018-08-13T21:45:17.841Z,16.03
2018-08-13T21:47:46.095Z,14.00
2018-08-13T21:50:16.815Z,14.83
2018-08-13T21:52:45.371Z,16.10
2018-08-13T21:55:13.687Z,14.73
2018-08-13T21:57:41.954Z,16.87
2018-08-13T22:00:36.671Z,12.70
2018-08-13T22:03:05.218Z,15.53
2018-08-13T22:05:33.517Z,14.60
2018-08-13T22:08:01.782Z,15.50
2018-08-13T22:10:30.035Z,14.73
2018-08-13T22:12:58.327Z,14.20
2018-08-13T22:15:31.837Z,16.03
2018-08-13T22:18:04.531Z,16.20
2018-08-13T22:20:33.846Z,15.43
2018-08-13T22:23:02.569Z,15.70
2018-08-13T22:25:32.202Z,18.27
2018-08-13T22:28:00.938Z,16.60
2018-08-13T22:30:30.315Z,15.40
2018-08-13T22:32:58.576Z,17.30
2018-08-13T22:35:26.904Z,17.47
2018-08-13T22:37:55.271Z,18.77
2018-08-13T22:40:23.521Z,17.07
2018-08-13T22:42:51.843Z,16.93
2018-08-13T22:45:21.296Z,17.47
2018-08-13T22:47:49.604Z,18.30
2018-08-13T22:50:17.875Z,16.03
2018-08-13T22:52:46.179Z,18.80
2018-08-13T22:55:15.771Z,16.97
2018-08-13T22:57:44.059Z,17.43
2018-08-13T23:00:13.985Z,17.87
2018-08-13T23:02:42.660Z,18.97
2018-08-13T23:05:20.044Z,19.07
2018-08-13T23:07:48.321Z,21.40
2018-08-13T23:10:18.802Z,17.33
2018-08-13T23:12:48.338Z,18.80
2018-08-13T23:15:17.105Z,18.37
2018-08-13T23:17:45.510Z,20.43
2018-08-13T23:20:22.363Z,17.87
2018-08-13T23:22:52.879Z,17.53
2018-08-13T23:25:21.359Z,20.10
2018-08-13T23:27:50.759Z,18.87
2018-08-13T23:30:19.088Z,18.33
2018-08-13T23:32:48.390Z,18.73
2018-08-13T23:35:17.507Z,17.70
2018-08-13T23:37:45.959Z,18.37
2018-08-13T23:40:14.323Z,18.67
2018-08-13T23:42:42.606Z,16.57
2018-08-13T23:45:13.152Z,19.60
2018-08-13T23:47:41.449Z,20.00
2018-08-13T23:50:11.643Z,19.53
2018-08-13T23:52:40.224Z,21.50
2018-08-13T23:55:10.839Z,22.27
2018-08-13T23:57:39.103Z,20.70
